High Valleyfield, United Kingdom
Current Conditions -  °F | °C
As of 5:20 PM on Thursday 18 Dec 2014 (Local Time) from EGPH Reporting Station
Broken Clouds Broken Clouds  
Wind Chill: 39°   Ceiling: 1400
Heat Index: 46°   Visibility: 6mi
Dew Point: 43°   Wind: 18mph
Humidity: 87%   Direction: 250°WSW
Pressure: 29.38"   Gusts: NA
Location:  56.06°N, 3.6°W
Report Text: EGPH 181720Z 25016KT 230V300 9999 BKN014 08/06 Q0995
Loading
Personal Weather Stations






























Interactive Weather Map New forecast layout! Learn more

10-Day Weather Forecast

Advertisements
Track Severe Weather on mobile